Time;durP1;ratioP1;P1;durP2;ratioP2;P2;SDS_P1;SDS_P2;PMS_P1;PMS_P2;Temp;Humidity;BMP_temperature;BMP_pressure;BME280_temperature;BME280_humidity;BME280_pressure;Samples;Min_cycle;Max_cycle;Signal;HPM_P1;HPM_P2
2021/04/14 00:00:57;;;;;;;12.47;8.97;;;-3.30;99.90;;;;;;2080711;28;20188;-68
2021/04/14 00:02:00;;;;;;;10.60;7.73;;;-3.30;99.90;;;;;;2080461;28;20176;-68
2021/04/14 00:03:02;;;;;;;11.77;8.60;;;-3.30;99.90;;;;;;2080054;28;20215;-68
2021/04/14 00:04:05;;;;;;;10.43;7.97;;;-3.30;99.90;;;;;;2079808;28;20726;-68
2021/04/14 00:05:08;;;;;;;12.32;8.40;;;-3.30;99.90;;;;;;2080048;28;20208;-68
2021/04/14 00:06:09;;;;;;;11.93;8.20;;;-3.30;99.90;;;;;;2080050;28;20208;-69
2021/04/14 00:07:12;;;;;;;12.55;9.10;;;-3.30;99.90;;;;;;2080075;28;20624;-68
2021/04/14 00:08:15;;;;;;;12.63;8.23;;;-3.30;99.90;;;;;;2080054;28;20603;-68
2021/04/14 00:09:16;;;;;;;13.48;9.25;;;-3.30;99.90;;;;;;2080639;28;20189;-68
2021/04/14 00:10:22;;;;;;;12.00;9.17;;;-3.30;99.90;;;;;;2080662;28;20566;-68
2021/04/14 00:11:22;;;;;;;12.75;8.85;;;-3.30;99.90;;;;;;2080537;28;20172;-68
2021/04/14 00:12:23;;;;;;;12.57;8.20;;;-3.30;99.90;;;;;;2079961;28;20177;-68
2021/04/14 00:13:30;;;;;;;9.87;7.33;;;-3.40;99.90;;;;;;2080205;28;20181;-69
2021/04/14 00:14:30;;;;;;;12.32;8.52;;;-3.40;99.90;;;;;;2080541;28;20208;-68
2021/04/14 00:15:41;;;;;;;12.13;7.93;;;-3.40;99.90;;;;;;2080785;28;20208;-68
2021/04/14 00:16:42;;;;;;;13.65;7.85;;;-3.40;99.90;;;;;;2080707;28;20169;-68
2021/04/14 00:17:43;;;;;;;10.47;8.10;;;-3.40;99.90;;;;;;2080815;28;20208;-68
2021/04/14 00:18:45;;;;;;;12.83;7.67;;;-3.40;99.90;;;;;;2080683;28;20608;-68
2021/04/14 00:19:45;;;;;;;14.52;8.52;;;-3.40;99.90;;;;;;2080495;28;20169;-68
2021/04/14 00:20:47;;;;;;;13.70;8.33;;;-3.40;99.90;;;;;;2080529;28;20191;-68
2021/04/14 00:21:49;;;;;;;10.68;7.45;;;-3.50;99.90;;;;;;2071565;28;20810;-68
2021/04/14 00:22:49;;;;;;;11.85;7.82;;;-3.40;99.90;;;;;;2071922;28;20186;-68
2021/04/14 00:23:52;;;;;;;12.13;7.77;;;-3.50;99.90;;;;;;2080595;28;20530;-68
2021/04/14 00:24:53;;;;;;;10.98;7.90;;;-3.40;99.90;;;;;;2079980;28;20209;-68
2021/04/14 00:25:53;;;;;;;11.53;8.23;;;-3.40;99.90;;;;;;2079981;28;20633;-68
2021/04/14 00:26:54;;;;;;;10.80;7.67;;;-3.40;99.90;;;;;;2080584;28;20180;-68
2021/04/14 00:27:55;;;;;;;10.63;7.77;;;-3.40;99.90;;;;;;2080583;28;20200;-68
2021/04/14 00:28:56;;;;;;;10.60;7.53;;;-3.40;99.90;;;;;;2080590;28;20409;-68
2021/04/14 00:29:56;;;;;;;11.87;7.70;;;-3.40;99.90;;;;;;2080594;28;20678;-68
2021/04/14 00:30:57;;;;;;;11.10;7.83;;;-3.40;99.90;;;;;;2080549;28;20177;-68
2021/04/14 00:31:58;;;;;;;9.87;7.13;;;-3.40;99.90;;;;;;2080377;28;20643;-68
2021/04/14 00:32:59;;;;;;;10.87;7.10;;;-3.40;99.90;;;;;;2080552;28;20554;-68
2021/04/14 00:33:59;;;;;;;8.67;6.50;;;-3.40;99.90;;;;;;2080481;28;20200;-68
2021/04/14 00:35:00;;;;;;;8.23;6.40;;;-3.40;99.90;;;;;;2080501;28;20180;-68
2021/04/14 00:36:01;;;;;;;10.30;6.37;;;-3.40;99.90;;;;;;2080509;28;20177;-68
2021/04/14 00:37:02;;;;;;;9.73;6.82;;;-3.40;99.90;;;;;;2079922;28;20180;-68
2021/04/14 00:38:05;;;;;;;9.57;6.20;;;-3.50;99.90;;;;;;2079979;28;20264;-68
2021/04/14 00:39:10;;;;;;;9.50;5.78;;;-3.40;99.90;;;;;;2079878;28;20549;-68
2021/04/14 00:40:16;;;;;;;9.35;5.35;;;-3.50;99.90;;;;;;2072348;28;20186;-68
2021/04/14 00:41:17;;;;;;;9.63;6.38;;;-3.50;99.90;;;;;;2072267;28;20266;-68
2021/04/14 00:42:18;;;;;;;8.97;6.80;;;-3.50;99.90;;;;;;2079991;28;20319;-68
2021/04/14 00:43:24;;;;;;;9.83;6.10;;;-3.60;99.90;;;;;;2080477;28;20207;-68
2021/04/14 00:44:25;;;;;;;11.00;6.60;;;-3.60;99.90;;;;;;2080433;28;20281;-66
2021/04/14 00:45:28;;;;;;;9.43;6.20;;;-3.60;99.90;;;;;;2080514;28;20181;-68
2021/04/14 00:46:29;;;;;;;10.38;6.85;;;-3.60;99.90;;;;;;2079946;28;20203;-68
2021/04/14 00:47:29;;;;;;;12.83;7.33;;;-3.60;99.90;;;;;;2079794;28;20191;-68
2021/04/14 00:48:30;;;;;;;10.03;6.60;;;-3.60;99.90;;;;;;2080492;28;20186;-68
2021/04/14 00:49:31;;;;;;;10.93;6.82;;;-3.60;99.90;;;;;;2080466;28;20581;-68
2021/04/14 00:50:32;;;;;;;10.70;6.47;;;-3.60;99.90;;;;;;2080553;28;20179;-68
2021/04/14 00:51:33;;;;;;;11.00;6.90;;;-3.60;99.90;;;;;;2080290;28;20182;-68
2021/04/14 00:52:34;;;;;;;7.90;6.18;;;-3.60;99.90;;;;;;2079958;28;20319;-68
2021/04/14 00:53:35;;;;;;;10.67;7.00;;;-3.60;99.90;;;;;;2079928;28;20335;-68
2021/04/14 00:54:36;;;;;;;10.33;6.23;;;-3.60;99.90;;;;;;2080541;28;20291;-68
2021/04/14 00:55:38;;;;;;;10.07;6.67;;;-3.60;99.90;;;;;;2080593;28;20201;-68
2021/04/14 00:56:40;;;;;;;9.05;6.53;;;-3.60;99.90;;;;;;2080595;28;20477;-68
2021/04/14 00:57:40;;;;;;;10.02;7.07;;;-3.60;99.90;;;;;;2080434;28;20276;-68
2021/04/14 00:58:41;;;;;;;9.43;7.03;;;-3.60;99.90;;;;;;2080542;28;20204;-68
2021/04/14 00:59:42;;;;;;;10.18;6.55;;;-3.60;99.90;;;;;;2079964;28;20170;-68
2021/04/14 01:00:45;;;;;;;11.97;7.23;;;-3.60;99.90;;;;;;2079969;28;20178;-68
2021/04/14 01:01:46;;;;;;;8.93;6.38;;;-3.60;99.90;;;;;;2079691;28;20185;-68
2021/04/14 01:02:47;;;;;;;9.70;6.47;;;-3.60;99.90;;;;;;2079900;28;20188;-68
2021/04/14 01:03:47;;;;;;;10.07;6.83;;;-3.60;99.90;;;;;;2080255;28;20185;-68
2021/04/14 01:04:48;;;;;;;9.43;6.70;;;-3.60;99.90;;;;;;2080390;28;20197;-68
2021/04/14 01:05:52;;;;;;;9.07;7.00;;;-3.60;99.90;;;;;;2080495;28;20592;-68
2021/04/14 01:06:53;;;;;;;8.73;6.53;;;-3.60;99.90;;;;;;2079816;28;20243;-68
2021/04/14 01:07:54;;;;;;;10.95;6.88;;;-3.60;99.90;;;;;;2079882;28;20232;-68
2021/04/14 01:08:56;;;;;;;9.83;7.40;;;-3.60;99.90;;;;;;2080334;28;20654;-68
2021/04/14 01:09:56;;;;;;;11.55;6.72;;;-3.60;99.90;;;;;;2080563;28;20188;-68
2021/04/14 01:10:57;;;;;;;9.50;6.60;;;-3.60;99.90;;;;;;2081252;28;20216;-68
2021/04/14 01:11:58;;;;;;;11.20;6.37;;;-3.60;99.90;;;;;;2081735;28;20216;-68
2021/04/14 01:13:01;;;;;;;9.57;6.20;;;-3.60;99.90;;;;;;2081875;28;20205;-68
2021/04/14 01:14:02;;;;;;;9.88;6.85;;;-3.70;99.90;;;;;;2081770;28;20786;-68
2021/04/14 01:15:06;;;;;;;9.23;6.72;;;-3.60;99.90;;;;;;2081893;28;20201;-68
2021/04/14 01:16:07;;;;;;;9.13;6.53;;;-3.70;99.90;;;;;;2081293;28;20734;-68
2021/04/14 01:17:08;;;;;;;9.65;6.72;;;-3.70;99.90;;;;;;2073251;28;20185;-68
2021/04/14 01:18:18;;;;;;;7.63;5.37;;;-3.70;99.90;;;;;;2081361;28;20188;-69
2021/04/14 01:19:19;;;;;;;10.27;6.47;;;-3.70;99.90;;;;;;2081880;28;20526;-68
2021/04/14 01:20:20;;;;;;;8.77;6.17;;;-3.70;99.90;;;;;;2081976;28;20255;-68
2021/04/14 01:21:24;;;;;;;9.55;5.65;;;-3.70;99.90;;;;;;2081599;28;20663;-68
2021/04/14 01:22:25;;;;;;;10.13;6.80;;;-3.70;99.90;;;;;;2081240;28;20185;-68
2021/04/14 01:23:30;;;;;;;8.80;5.87;;;-3.70;99.90;;;;;;2073090;28;20180;-68
2021/04/14 01:24:30;;;;;;;9.52;6.07;;;-3.70;99.90;;;;;;2073356;28;20197;-68
2021/04/14 01:25:36;;;;;;;8.27;6.23;;;-3.70;99.90;;;;;;2081162;28;20174;-68
2021/04/14 01:26:37;;;;;;;7.95;5.78;;;-3.80;99.90;;;;;;2081252;28;20714;-68
2021/04/14 01:27:38;;;;;;;10.43;6.63;;;-3.80;99.90;;;;;;2081038;28;20177;-68
2021/04/14 01:28:42;;;;;;;9.07;7.07;;;-3.80;99.90;;;;;;2081652;28;20196;-68
2021/04/14 01:29:42;;;;;;;9.82;6.55;;;-3.80;99.90;;;;;;2081641;28;20638;-68
2021/04/14 01:30:45;;;;;;;9.50;6.60;;;-3.80;99.90;;;;;;2081806;28;20188;-68
2021/04/14 01:31:46;;;;;;;12.15;6.88;;;-3.80;99.90;;;;;;2080909;28;20759;-68
2021/04/14 01:32:47;;;;;;;9.03;6.20;;;-3.80;99.90;;;;;;2081175;28;20181;-68
2021/04/14 01:33:47;;;;;;;9.93;6.57;;;-3.80;99.90;;;;;;2081657;28;20200;-68
2021/04/14 01:34:48;;;;;;;7.53;6.43;;;-3.80;99.90;;;;;;2081638;28;20185;-69
2021/04/14 01:35:49;;;;;;;9.90;6.27;;;-3.80;99.90;;;;;;2081692;28;20556;-68
2021/04/14 01:36:50;;;;;;;9.10;6.17;;;-3.80;99.90;;;;;;2081720;28;20235;-68
2021/04/14 01:37:51;;;;;;;11.10;6.90;;;-3.90;99.90;;;;;;2081638;28;20177;-68
2021/04/14 01:38:52;;;;;;;9.15;6.60;;;-3.90;99.90;;;;;;2081103;28;20188;-68
2021/04/14 01:39:53;;;;;;;11.00;5.83;;;-3.90;99.90;;;;;;2081075;28;20263;-69
2021/04/14 01:40:53;;;;;;;9.67;6.23;;;-3.90;99.90;;;;;;2081623;28;20183;-68
2021/04/14 01:41:54;;;;;;;7.53;5.93;;;-3.90;99.90;;;;;;2081445;28;20241;-68
2021/04/14 01:42:56;;;;;;;8.33;5.70;;;-3.90;99.90;;;;;;2081690;28;20622;-68
2021/04/14 01:43:57;;;;;;;8.80;6.40;;;-4.00;99.90;;;;;;2081010;28;20185;-69
2021/04/14 01:44:58;;;;;;;8.98;6.25;;;-4.00;99.90;;;;;;2080967;28;20688;-68
2021/04/14 01:45:59;;;;;;;10.13;6.47;;;-4.00;99.90;;;;;;2081554;28;20189;-68
2021/04/14 01:47:00;;;;;;;9.15;6.18;;;-4.00;99.90;;;;;;2081497;28;20268;-68
2021/04/14 01:48:01;;;;;;;7.93;6.10;;;-4.00;99.90;;;;;;2077812;28;20178;-68
2021/04/14 01:49:02;;;;;;;10.65;7.05;;;-4.00;99.90;;;;;;2081034;28;20173;-69
2021/04/14 01:50:07;;;;;;;10.80;6.30;;;-4.00;99.90;;;;;;2081563;28;20534;-68
2021/04/14 01:51:08;;;;;;;11.30;7.03;;;-4.00;99.90;;;;;;2081546;28;20214;-69
2021/04/14 01:52:09;;;;;;;10.13;6.57;;;-4.00;99.90;;;;;;2080784;28;20247;-68
2021/04/14 01:53:13;;;;;;;8.57;5.73;;;-4.00;99.90;;;;;;2081079;28;20181;-68
2021/04/14 01:54:13;;;;;;;7.20;5.82;;;-4.00;99.90;;;;;;2080818;28;20616;-68
2021/04/14 01:55:14;;;;;;;11.77;6.40;;;-4.00;99.90;;;;;;2081008;28;20209;-68
2021/04/14 01:56:15;;;;;;;9.32;5.97;;;-4.10;99.90;;;;;;2081460;28;20200;-69
2021/04/14 01:57:16;;;;;;;8.77;6.43;;;-4.00;99.90;;;;;;2081646;28;20204;-68
2021/04/14 01:58:18;;;;;;;8.03;6.23;;;-4.10;99.90;;;;;;2081577;28;20226;-68
2021/04/14 01:59:19;;;;;;;8.20;6.03;;;-4.10;99.90;;;;;;2081546;28;20295;-68
2021/04/14 02:00:22;;;;;;;9.80;6.27;;;-4.10;99.90;;;;;;2081503;28;20295;-68
2021/04/14 02:01:23;;;;;;;7.55;6.07;;;-4.10;99.90;;;;;;2080531;28;20183;-68
2021/04/14 02:02:23;;;;;;;7.80;5.72;;;-4.10;99.90;;;;;;2080649;28;20188;-68
2021/04/14 02:03:28;;;;;;;9.30;6.13;;;-4.10;99.90;;;;;;2081541;28;20192;-68
2021/04/14 02:04:29;;;;;;;7.10;6.00;;;-4.10;99.90;;;;;;2080613;28;20296;-68
2021/04/14 02:05:32;;;;;;;9.20;6.20;;;-4.10;99.90;;;;;;2080913;28;20667;-68
2021/04/14 02:06:33;;;;;;;7.82;5.68;;;-4.10;99.90;;;;;;2080865;28;20178;-68
2021/04/14 02:07:34;;;;;;;7.10;5.93;;;-4.10;99.90;;;;;;2080868;28;20816;-68
2021/04/14 02:08:35;;;;;;;8.43;5.57;;;-4.10;99.90;;;;;;2081541;28;20177;-68
2021/04/14 02:09:36;;;;;;;8.73;5.67;;;-4.10;99.90;;;;;;2081557;28;20192;-68
2021/04/14 02:10:37;;;;;;;7.70;5.47;;;-4.10;99.90;;;;;;2081474;28;20659;-68
2021/04/14 02:11:38;;;;;;;7.90;6.10;;;-4.10;99.90;;;;;;2081384;28;20196;-68
2021/04/14 02:12:39;;;;;;;8.47;5.70;;;-4.10;99.90;;;;;;2081370;28;20188;-68
2021/04/14 02:13:42;;;;;;;11.63;6.53;;;-4.10;99.90;;;;;;2080834;28;20181;-68
2021/04/14 02:14:42;;;;;;;8.32;5.72;;;-4.10;99.90;;;;;;2080897;28;20177;-68
2021/04/14 02:15:43;;;;;;;9.93;5.70;;;-4.10;99.90;;;;;;2081384;28;20230;-68
2021/04/14 02:16:44;;;;;;;9.30;6.17;;;-4.10;99.90;;;;;;2071143;28;20191;-68
2021/04/14 02:17:45;;;;;;;10.33;6.50;;;-4.10;99.90;;;;;;2072541;28;20185;-68
2021/04/14 02:18:46;;;;;;;8.60;6.25;;;-4.10;99.90;;;;;;2080417;28;20220;-68
2021/04/14 02:19:46;;;;;;;8.23;5.77;;;-4.10;99.90;;;;;;2072640;28;20332;-68
2021/04/14 02:20:48;;;;;;;7.47;5.10;;;-4.10;99.90;;;;;;2072908;28;20176;-68
2021/04/14 02:21:49;;;;;;;8.75;5.95;;;-4.10;99.90;;;;;;2072989;28;20188;-68
2021/04/14 02:22:50;;;;;;;10.40;6.37;;;-4.10;99.90;;;;;;2073165;28;20216;-68
2021/04/14 02:23:51;;;;;;;6.97;5.03;;;-4.10;99.90;;;;;;2072359;28;20549;-68
2021/04/14 02:24:52;;;;;;;5.70;5.07;;;-4.10;99.90;;;;;;2072365;28;20287;-68
2021/04/14 02:25:58;;;;;;;7.10;5.40;;;-4.10;99.90;;;;;;2073194;28;20424;-68
2021/04/14 02:26:58;;;;;;;8.15;5.47;;;-4.20;99.90;;;;;;2072505;28;20632;-68
2021/04/14 02:27:59;;;;;;;7.57;4.40;;;-4.20;99.90;;;;;;2072553;28;20189;-68
2021/04/14 02:29:00;;;;;;;7.73;5.37;;;-4.20;99.90;;;;;;2073046;28;20231;-68
2021/04/14 02:30:03;;;;;;;7.90;5.53;;;-4.20;99.90;;;;;;2073240;28;20211;-68
2021/04/14 02:31:05;;;;;;;8.60;6.18;;;-4.20;99.90;;;;;;2073025;28;20181;-68
2021/04/14 02:32:06;;;;;;;6.18;4.85;;;-4.20;99.90;;;;;;2072918;28;20177;-68
2021/04/14 02:33:10;;;;;;;9.75;5.63;;;-4.20;99.90;;;;;;2073117;28;20216;-68
2021/04/14 02:34:14;;;;;;;9.13;5.47;;;-4.20;99.90;;;;;;2072972;28;20672;-68
2021/04/14 02:35:14;;;;;;;8.98;5.75;;;-4.20;99.90;;;;;;2064377;28;20187;-68
2021/04/14 02:36:15;;;;;;;6.93;5.03;;;-4.20;99.90;;;;;;2064875;28;20232;-69
2021/04/14 02:37:16;;;;;;;6.47;5.13;;;-4.20;99.90;;;;;;2073089;28;20190;-68
2021/04/14 02:38:19;;;;;;;7.22;5.70;;;-4.20;99.90;;;;;;2073097;28;20201;-69
2021/04/14 02:39:20;;;;;;;9.05;5.40;;;-4.20;99.90;;;;;;2072424;28;20200;-68
2021/04/14 02:40:22;;;;;;;7.57;4.60;;;-4.20;99.90;;;;;;2072497;28;20188;-69
2021/04/14 02:41:23;;;;;;;7.18;5.25;;;-4.20;99.90;;;;;;2080324;28;20215;-69
2021/04/14 02:42:23;;;;;;;6.97;5.10;;;-4.30;99.90;;;;;;2080649;28;20184;-68
2021/04/14 02:43:24;;;;;;;6.47;4.80;;;-4.30;99.90;;;;;;2072957;28;20716;-68
2021/04/14 02:44:26;;;;;;;7.27;5.53;;;-4.30;99.90;;;;;;2072963;28;20212;-68
2021/04/14 02:45:30;;;;;;;8.95;5.47;;;-4.30;99.90;;;;;;2072120;28;20247;-69
2021/04/14 02:46:31;;;;;;;7.70;4.80;;;-4.30;99.90;;;;;;2072316;28;20228;-68
2021/04/14 02:47:31;;;;;;;8.53;4.70;;;-4.30;99.90;;;;;;2072938;28;20230;-68
2021/04/14 02:48:32;;;;;;;8.07;5.07;;;-4.30;99.90;;;;;;2072983;28;20176;-69
2021/04/14 02:49:33;;;;;;;5.57;4.27;;;-4.30;99.90;;;;;;2072951;28;20257;-68
2021/04/14 02:50:34;;;;;;;8.73;5.03;;;-4.40;99.90;;;;;;2072911;28;20265;-68
2021/04/14 02:51:35;;;;;;;7.10;4.47;;;-4.40;99.90;;;;;;2072139;28;20201;-68
2021/04/14 02:52:36;;;;;;;7.87;5.27;;;-4.40;99.90;;;;;;2072439;28;20631;-68
2021/04/14 02:53:37;;;;;;;6.35;4.70;;;-4.40;99.90;;;;;;2072995;28;20267;-68
2021/04/14 02:54:37;;;;;;;6.47;4.50;;;-4.40;99.90;;;;;;2072958;28;20564;-69
2021/04/14 02:55:38;;;;;;;6.70;5.00;;;-4.40;99.90;;;;;;2072860;28;20170;-68
2021/04/14 02:56:39;;;;;;;7.53;5.05;;;-4.40;99.90;;;;;;2072443;28;20185;-68
2021/04/14 02:57:40;;;;;;;8.60;4.90;;;-4.40;99.90;;;;;;2072336;28;20236;-68
2021/04/14 02:58:40;;;;;;;7.27;5.50;;;-4.40;99.90;;;;;;2073035;28;20243;-68
2021/04/14 02:59:41;;;;;;;7.40;4.77;;;-4.40;99.90;;;;;;2073011;28;20279;-69
2021/04/14 03:00:42;;;;;;;7.22;4.80;;;-4.40;99.90;;;;;;2072893;28;20181;-68
2021/04/14 03:01:43;;;;;;;6.17;4.90;;;-4.40;99.90;;;;;;2072914;28;20184;-68
2021/04/14 03:02:44;;;;;;;9.90;5.03;;;-4.40;99.90;;;;;;2073056;28;20185;-68
2021/04/14 03:03:45;;;;;;;7.38;4.53;;;-4.40;99.90;;;;;;2072838;28;20174;-68
2021/04/14 03:04:46;;;;;;;7.88;4.97;;;-4.50;99.90;;;;;;2072932;28;20237;-68
2021/04/14 03:05:46;;;;;;;7.10;4.70;;;-4.50;99.90;;;;;;2072898;28;20186;-68
2021/04/14 03:06:47;;;;;;;8.43;5.03;;;-4.50;99.90;;;;;;2072827;28;20633;-68
2021/04/14 03:07:48;;;;;;;7.10;4.90;;;-4.50;99.90;;;;;;2072988;28;20185;-68
2021/04/14 03:08:49;;;;;;;8.57;5.40;;;-4.50;99.90;;;;;;2072807;28;20213;-68
2021/04/14 03:09:49;;;;;;;7.90;5.10;;;-4.40;99.90;;;;;;2072862;28;20196;-68
2021/04/14 03:10:50;;;;;;;6.27;4.73;;;-4.40;99.90;;;;;;2072820;28;20878;-68
2021/04/14 03:11:51;;;;;;;7.33;4.80;;;-4.40;99.90;;;;;;2072600;28;20192;-68
2021/04/14 03:12:52;;;;;;;5.73;4.33;;;-4.50;99.90;;;;;;2072848;28;20181;-68
2021/04/14 03:13:53;;;;;;;6.10;4.38;;;-4.50;99.90;;;;;;2072834;28;20176;-68
2021/04/14 03:14:55;;;;;;;9.33;5.00;;;-4.50;99.90;;;;;;2072726;28;20763;-68
2021/04/14 03:15:56;;;;;;;9.57;4.40;;;-4.50;99.90;;;;;;2072119;28;20215;-68
2021/04/14 03:16:56;;;;;;;8.57;4.47;;;-4.50;99.90;;;;;;2072108;28;20644;-68
2021/04/14 03:17:57;;;;;;;8.07;5.20;;;-4.50;99.90;;;;;;2072817;28;20701;-68
2021/04/14 03:18:58;;;;;;;7.10;4.57;;;-4.50;99.90;;;;;;2072160;28;20196;-68
2021/04/14 03:19:59;;;;;;;6.50;4.57;;;-4.50;99.90;;;;;;2072203;28;20188;-68
2021/04/14 03:21:00;;;;;;;7.17;5.50;;;-4.50;99.90;;;;;;2072186;28;20597;-69
2021/04/14 03:22:00;;;;;;;6.37;4.50;;;-4.50;99.90;;;;;;2072069;28;20224;-68
2021/04/14 03:23:01;;;;;;;7.20;4.97;;;-4.50;99.90;;;;;;2072765;28;20271;-68
2021/04/14 03:24:02;;;;;;;7.00;5.10;;;-4.50;99.90;;;;;;2072782;28;20647;-68
2021/04/14 03:25:05;;;;;;;6.75;4.80;;;-4.50;99.90;;;;;;2072649;28;20694;-68
2021/04/14 03:26:05;;;;;;;6.63;4.25;;;-4.50;99.90;;;;;;2072119;28;20197;-68
2021/04/14 03:27:07;;;;;;;6.80;4.43;;;-4.50;99.90;;;;;;2064068;28;20265;-68
2021/04/14 03:28:09;;;;;;;7.55;5.00;;;-4.50;99.90;;;;;;2072097;28;20185;-68
2021/04/14 03:29:10;;;;;;;6.65;4.65;;;-4.50;99.90;;;;;;2072675;28;20228;-68
2021/04/14 03:30:12;;;;;;;8.35;4.70;;;-4.50;99.90;;;;;;2072113;28;20260;-68
2021/04/14 03:31:12;;;;;;;6.07;4.85;;;-4.60;99.90;;;;;;2071745;28;20194;-68
2021/04/14 03:32:13;;;;;;;6.83;4.03;;;-4.60;99.90;;;;;;2072257;28;20198;-68
2021/04/14 03:33:14;;;;;;;6.10;4.67;;;-4.60;99.90;;;;;;2072463;28;20550;-68
2021/04/14 03:34:15;;;;;;;7.18;4.63;;;-4.60;99.90;;;;;;2072571;28;20250;-69
2021/04/14 03:35:19;;;;;;;7.32;4.65;;;-4.60;99.90;;;;;;2072532;28;20631;-68
2021/04/14 03:36:20;;;;;;;5.80;4.38;;;-4.60;99.90;;;;;;2072679;28;20190;-68
2021/04/14 03:37:21;;;;;;;6.60;4.40;;;-4.60;99.90;;;;;;2072565;28;20189;-67
2021/04/14 03:38:22;;;;;;;6.07;4.33;;;-4.70;99.90;;;;;;2072543;28;20560;-68
2021/04/14 03:39:22;;;;;;;6.67;4.33;;;-4.70;99.90;;;;;;2071835;28;20193;-68
2021/04/14 03:40:23;;;;;;;9.03;5.17;;;-4.70;99.90;;;;;;2072011;28;20490;-68
2021/04/14 03:41:29;;;;;;;6.40;4.70;;;-4.70;99.90;;;;;;2072368;28;20181;-68
2021/04/14 03:42:30;;;;;;;5.63;4.18;;;-4.70;99.90;;;;;;2072635;28;20172;-68
2021/04/14 03:43:31;;;;;;;8.60;5.07;;;-4.70;99.90;;;;;;2072541;28;20708;-69
2021/04/14 03:44:35;;;;;;;6.63;5.07;;;-4.70;99.90;;;;;;2072366;28;20197;-68
2021/04/14 03:45:49;;;;;;;9.02;5.28;;;-4.70;99.90;;;;;;2072492;28;20223;-68
2021/04/14 03:46:49;;;;;;;6.72;4.90;;;-4.70;99.90;;;;;;2072008;28;20227;-68
2021/04/14 03:47:50;;;;;;;8.40;4.80;;;-4.70;99.90;;;;;;2072016;28;20215;-68
2021/04/14 03:48:52;;;;;;;8.27;5.50;;;-4.60;99.90;;;;;;2072492;28;20182;-68
2021/04/14 03:49:53;;;;;;;7.10;4.68;;;-4.60;99.90;;;;;;2072569;28;20667;-68
2021/04/14 03:50:54;;;;;;;8.65;5.07;;;-4.70;99.90;;;;;;2072597;28;20185;-68
2021/04/14 03:51:55;;;;;;;5.68;4.75;;;-4.70;99.90;;;;;;2071741;28;20210;-68
2021/04/14 03:53:14;;;;;;;5.67;4.53;;;-4.60;99.90;;;;;;2072026;28;20180;-68
2021/04/14 03:54:15;;;;;;;5.75;4.47;;;-4.70;99.90;;;;;;2074456;28;20254;-68
2021/04/14 03:55:20;;;;;;;6.63;4.90;;;-4.60;99.90;;;;;;2072591;28;20240;-69
2021/04/14 03:56:22;;;;;;;6.28;4.68;;;-4.60;99.90;;;;;;2072561;28;20859;-68
2021/04/14 03:57:22;;;;;;;6.95;4.32;;;-4.70;99.90;;;;;;2071969;28;20189;-68
2021/04/14 03:58:25;;;;;;;8.77;5.23;;;-4.70;99.90;;;;;;2071932;28;20248;-68
2021/04/14 03:59:25;;;;;;;7.38;4.57;;;-4.70;99.90;;;;;;2071950;28;20676;-69
2021/04/14 04:00:26;;;;;;;5.70;4.60;;;-4.70;99.90;;;;;;2071803;28;20216;-68
2021/04/14 04:01:30;;;;;;;6.47;4.13;;;-4.70;99.90;;;;;;2072929;28;20185;-69
2021/04/14 04:02:31;;;;;;;6.57;5.00;;;-4.70;99.90;;;;;;2073036;28;20657;-69
2021/04/14 04:03:32;;;;;;;7.63;4.20;;;-4.70;99.90;;;;;;2065167;28;20194;-68
2021/04/14 04:04:32;;;;;;;7.17;4.67;;;-4.70;99.90;;;;;;2072969;28;20211;-68
2021/04/14 04:05:33;;;;;;;5.23;4.37;;;-4.70;99.90;;;;;;2073015;28;20177;-70
2021/04/14 04:06:34;;;;;;;6.13;4.30;;;-4.70;99.90;;;;;;2073248;28;20168;-68
2021/04/14 04:07:35;;;;;;;6.67;4.00;;;-4.70;99.90;;;;;;2073281;28;20588;-68
2021/04/14 04:08:35;;;;;;;8.13;4.05;;;-4.70;99.90;;;;;;2073110;28;20645;-68
2021/04/14 04:09:36;;;;;;;7.07;4.70;;;-4.70;99.90;;;;;;2073236;28;20216;-68
2021/04/14 04:10:37;;;;;;;5.67;4.13;;;-4.70;99.90;;;;;;2073294;28;20189;-68
2021/04/14 04:11:37;;;;;;;7.23;4.53;;;-4.70;99.90;;;;;;2073068;28;20565;-69
2021/04/14 04:12:39;;;;;;;7.40;4.93;;;-4.70;99.90;;;;;;2073175;28;20173;-68
2021/04/14 04:13:40;;;;;;;6.90;4.70;;;-4.70;99.90;;;;;;2073335;28;20169;-68
2021/04/14 04:14:48;;;;;;;5.75;4.07;;;-4.70;99.90;;;;;;2073211;28;20252;-68
2021/04/14 04:15:49;;;;;;;6.65;4.30;;;-4.70;99.90;;;;;;2073398;28;20154;-68
2021/04/14 04:16:49;;;;;;;8.65;4.78;;;-4.80;99.90;;;;;;2073446;28;20204;-69
2021/04/14 04:17:50;;;;;;;7.40;4.90;;;-4.70;99.90;;;;;;2073364;28;20242;-69
2021/04/14 04:18:51;;;;;;;6.00;4.47;;;-4.80;99.90;;;;;;2073270;28;20230;-68
2021/04/14 04:19:52;;;;;;;5.22;4.15;;;-4.70;99.90;;;;;;2072847;28;20704;-68
2021/04/14 04:20:54;;;;;;;9.13;5.00;;;-4.70;99.90;;;;;;2072812;28;20192;-69
2021/04/14 04:21:55;;;;;;;5.57;4.43;;;-4.80;99.90;;;;;;2073110;28;20599;-68
2021/04/14 04:22:56;;;;;;;6.23;4.20;;;-4.80;99.90;;;;;;2073463;28;20247;-68
2021/04/14 04:23:57;;;;;;;6.35;4.35;;;-4.80;99.90;;;;;;2072745;28;20203;-68
2021/04/14 04:24:57;;;;;;;5.30;4.07;;;-4.70;99.90;;;;;;2072791;28;20696;-69
2021/04/14 04:25:58;;;;;;;8.73;4.33;;;-4.80;99.90;;;;;;2073215;28;20191;-68
2021/04/14 04:26:59;;;;;;;5.83;4.03;;;-4.80;99.90;;;;;;2073367;28;20271;-68
2021/04/14 04:28:01;;;;;;;5.70;4.20;;;-4.80;99.90;;;;;;2073314;28;20185;-69
2021/04/14 04:29:01;;;;;;;6.40;4.47;;;-4.80;99.90;;;;;;2072910;28;20659;-68
2021/04/14 04:30:05;;;;;;;5.43;3.93;;;-4.80;99.90;;;;;;2072669;28;20192;-69
2021/04/14 04:31:07;;;;;;;6.50;4.05;;;-4.80;99.90;;;;;;2072864;28;20696;-68
2021/04/14 04:32:08;;;;;;;8.10;4.40;;;-4.80;99.90;;;;;;2072485;28;20205;-69
2021/04/14 04:33:09;;;;;;;8.27;4.90;;;-4.80;99.90;;;;;;2072912;28;20573;-68
2021/04/14 04:34:09;;;;;;;5.97;4.10;;;-4.80;99.90;;;;;;2072740;28;20210;-68
2021/04/14 04:35:11;;;;;;;5.30;4.17;;;-4.80;99.90;;;;;;2073505;28;20848;-69
2021/04/14 04:36:13;;;;;;;8.70;4.50;;;-4.80;99.90;;;;;;2072681;28;20705;-68
2021/04/14 04:37:14;;;;;;;7.40;4.38;;;-4.80;99.90;;;;;;2072797;28;20186;-68
2021/04/14 04:38:15;;;;;;;5.77;4.43;;;-4.80;99.90;;;;;;2073443;28;20182;-69
2021/04/14 04:39:16;;;;;;;6.10;4.37;;;-4.80;99.90;;;;;;2072709;28;20185;-68
2021/04/14 04:40:19;;;;;;;8.23;4.68;;;-4.80;99.90;;;;;;2072835;28;20185;-68
2021/04/14 04:41:19;;;;;;;6.05;5.05;;;-4.80;99.90;;;;;;2073182;28;20554;-68
2021/04/14 04:42:20;;;;;;;6.63;4.97;;;-4.80;99.90;;;;;;2073283;28;20266;-68
2021/04/14 04:43:22;;;;;;;6.70;4.77;;;-4.80;99.90;;;;;;2072918;28;20193;-68
2021/04/14 04:44:23;;;;;;;5.93;4.57;;;-4.70;99.90;;;;;;2074229;28;20882;-69
2021/04/14 04:45:28;;;;;;;6.17;3.97;;;-4.80;99.90;;;;;;2075127;28;20184;-68
2021/04/14 04:46:29;;;;;;;5.47;4.07;;;-4.70;99.90;;;;;;2074962;28;20994;-68
2021/04/14 04:47:29;;;;;;;7.90;4.87;;;-4.70;99.90;;;;;;2074986;28;20180;-71
2021/04/14 04:48:30;;;;;;;6.87;4.87;;;-4.80;99.90;;;;;;2074873;28;20726;-68
2021/04/14 04:49:31;;;;;;;6.50;4.50;;;-4.70;99.90;;;;;;2074989;28;20188;-68
2021/04/14 04:50:34;;;;;;;7.13;4.97;;;-4.70;99.90;;;;;;2074935;28;20307;-68
2021/04/14 04:51:35;;;;;;;9.90;5.55;;;-4.60;99.90;;;;;;2073995;28;20173;-68
2021/04/14 04:52:36;;;;;;;7.20;4.67;;;-4.60;99.90;;;;;;2074262;28;20180;-68
2021/04/14 04:53:36;;;;;;;5.50;4.00;;;-4.60;99.90;;;;;;2074671;28;20301;-68
2021/04/14 04:54:37;;;;;;;5.93;4.73;;;-4.60;99.90;;;;;;2074483;28;20200;-67
2021/04/14 04:55:41;;;;;;;7.50;4.40;;;-4.60;99.90;;;;;;2074812;28;20514;-69
2021/04/14 04:56:42;;;;;;;5.97;3.95;;;-4.60;99.90;;;;;;2074171;28;20645;-68
2021/04/14 04:57:42;;;;;;;5.83;3.73;;;-4.60;99.90;;;;;;2074208;28;20177;-68
2021/04/14 04:58:43;;;;;;;4.93;3.43;;;-4.60;99.90;;;;;;2074798;28;20678;-68
2021/04/14 04:59:44;;;;;;;5.37;3.70;;;-4.60;99.90;;;;;;2074837;28;20177;-68
2021/04/14 05:00:47;;;;;;;6.40;3.40;;;-4.60;99.90;;;;;;2074717;28;20266;-68
2021/04/14 05:01:47;;;;;;;6.40;3.85;;;-4.60;99.90;;;;;;2074608;28;20181;-68
2021/04/14 05:02:48;;;;;;;6.47;4.30;;;-4.60;99.90;;;;;;2074829;28;20212;-68
2021/04/14 05:03:52;;;;;;;6.22;3.70;;;-4.70;99.90;;;;;;2074009;28;20192;-68
2021/04/14 05:04:53;;;;;;;6.18;5.00;;;-4.60;99.90;;;;;;2074066;28;20682;-68
2021/04/14 05:06:00;;;;;;;7.57;4.75;;;-4.60;99.90;;;;;;2074618;28;20178;-68
2021/04/14 05:07:01;;;;;;;8.65;5.07;;;-4.60;99.90;;;;;;2074711;28;20200;-68
2021/04/14 05:08:02;;;;;;;4.90;4.40;;;-4.60;99.90;;;;;;2074737;28;20186;-68
2021/04/14 05:09:04;;;;;;;5.10;4.60;;;-4.60;99.90;;;;;;2074745;28;20192;-68
2021/04/14 05:10:06;;;;;;;6.97;5.38;;;-4.60;99.90;;;;;;2074109;28;20192;-68
2021/04/14 05:11:07;;;;;;;8.18;5.40;;;-4.60;99.90;;;;;;2073856;28;20205;-68
2021/04/14 05:12:08;;;;;;;7.67;4.87;;;-4.50;99.90;;;;;;2066094;28;20684;-68
2021/04/14 05:13:09;;;;;;;6.30;5.30;;;-4.50;99.90;;;;;;2065945;28;20194;-68
2021/04/14 05:14:10;;;;;;;6.70;4.72;;;-4.50;99.90;;;;;;2074129;28;20212;-68
2021/04/14 05:15:11;;;;;;;6.73;5.23;;;-4.50;99.90;;;;;;2074543;28;20242;-68
2021/04/14 05:16:12;;;;;;;7.35;5.53;;;-4.50;99.90;;;;;;2074757;28;20471;-68
2021/04/14 05:17:13;;;;;;;7.93;5.40;;;-4.40;99.90;;;;;;2074554;28;20598;-68
2021/04/14 05:18:14;;;;;;;7.90;5.43;;;-4.50;99.90;;;;;;2074597;28;20188;-68
2021/04/14 05:19:15;;;;;;;9.77;5.32;;;-4.50;99.90;;;;;;2065721;28;20192;-68
2021/04/14 05:20:17;;;;;;;8.20;5.40;;;-4.40;99.90;;;;;;2057771;28;20195;-68